CYQX - CYJT

Guest
Details From CYQX - Gander Intl
To CYJT - Stephenville
Flight Number -
Tags Generated
Created
Modified
Stats Distance 160 nm / 296 km
Max Altitude 0 ft / 0 m
Waypoints 2
Social Downloads 1
Likes 0
Share VATSIM

Download

Looking for another format? Having issues loading an existing format? Contact us
Advertisement - Login to hide

Notes

Generated

Route

CYQX CYJT

ID Type Via Altitude Latitude Longitude Leg Dist Tot Dist Heading (true) Name
O CYQX APT - 0 ft / 0 m 48.94339˚ -54.56803˚ - 0 nm - GANDER INTL
O CYJT APT - 0 ft / 0 m 48.53389˚ -58.55250˚ 159 nm 159 nm 263° / 260° -

Altitude Profile

CYQX

Details ICAO CYQX (YQX)
Name GANDER INTL
Region Canada
Timezone America/St_Johns (UTC-3.5)
Stats Elevation 496 ft / 151 m (AMSL)
Location 48.942962° -54.565864°
Runways 3
Magnetic Variation 18.977° W

METAR

CYQX 161700Z 27006KT 260V330 20SM FEW018 M12/M18 A3011 RMK SC1 SLP211

Decode

TAF

TAF TAF CYQX 161138Z 1612/1712 30012KT 6SM -SHSN OVC020 TEMPO 1612/1615 P6SM NSW BKN025 FM161500 28012KT P6SM SCT020 TEMPO 1615/1617 BKN020 BECMG 1619/1621 22007KT FM170000 19010KT P6SM BKN100 FM170400 17015KT 2SM -SN OVC015 FM170800 17012KT 1SM -SN VV010 PROB30 1708/1711 3/4SM -SN VV008 RMK NXT FCST BY 161800Z

Decode

Departure Runways

ID Width Length Bearing (true) Bearing (mag) Surface Threshold Offset Overrun Length
03 200 ft / 61 m 10,230 ft / 3,118 m 10.93° 29.91° Asphalt 0 ft / 0 m 200 ft / 61 m
09 50 ft / 15 m 1,874 ft / 571 m 62.63° 81.61° Asphalt 0 ft / 0 m 75 ft / 23 m
13 200 ft / 61 m 8,855 ft / 2,699 m 107.30° 126.28° Asphalt 0 ft / 0 m 200 ft / 61 m
21 200 ft / 61 m 10,230 ft / 3,118 m 190.94° 209.92° Asphalt 0 ft / 0 m 199 ft / 61 m
27 50 ft / 15 m 1,874 ft / 571 m 242.64° 261.62° Asphalt 0 ft / 0 m 250 ft / 76 m
31 200 ft / 61 m 8,855 ft / 2,699 m 287.33° 306.31° Asphalt 0 ft / 0 m 201 ft / 61 m

CYJT

Details ICAO CYJT (YJT)
Name STEPHENVILLE
Region Canada
Timezone America/St_Johns (UTC-3.5)
Stats Elevation 80 ft / 24 m (AMSL)
Location 48.541811° -58.551488°
Runways 2
Magnetic Variation 19.082° W

METAR

CYJT 161700Z 31003KT 15SM OVC025 M09/M14 A3016 RMK SC8 SLP218

Decode

TAF

TAF CYJT 161138Z 1612/1712 29007KT P6SM BKN025 BECMG 1615/1617 24012KT FM162000 21018G28KT 21/2SM -SHSN OVC020 FM170000 21020G30KT 11/2SM -SN BLSN VV012 FM170200 21020G30KT 3/4SM -SN BLSN VV008 FM170600 26018G28KT 11/2SM -SHSN BLSN OVC015 PROB40 1706/1711 1/2SM SHSN BLSN VV005 RMK NXT FCST BY 161800Z

Decode

Destination Runways

ID Width Length Bearing (true) Bearing (mag) Surface Threshold Offset Overrun Length
02 150 ft / 46 m 3,770 ft / 1,149 m 355.50° 14.58° Asphalt 0 ft / 0 m 0 ft / 0 m
09 200 ft / 61 m 9,970 ft / 3,039 m 71.61° 90.69° Asphalt 0 ft / 0 m 1,000 ft / 305 m
20 150 ft / 46 m 3,770 ft / 1,149 m 175.50° 194.58° Asphalt 0 ft / 0 m 0 ft / 0 m
27 200 ft / 61 m 9,970 ft / 3,039 m 251.64° 270.72° Asphalt 0 ft / 0 m 1,000 ft / 305 m

Popular Alternatives